Time;durP1;ratioP1;P1;durP2;ratioP2;P2;SDS_P1;SDS_P2;PMS_P1;PMS_P2;Temp;Humidity;BMP_temperature;BMP_pressure;BME280_temperature;BME280_humidity;BME280_pressure;Samples;Min_cycle;Max_cycle;Signal;HPM_P1;HPM_P2
2021/07/11 00:01:05;;;;;;;11.33;9.50;;;18.70;1.00;;;;;;4975334;28;20605;-66
2021/07/11 00:03:31;;;;;;;13.23;9.03;;;18.70;1.00;;;;;;4975008;28;20275;-66
2021/07/11 00:05:56;;;;;;;10.27;9.17;;;18.50;1.00;;;;;;4975239;28;20612;-66
2021/07/11 00:08:22;;;;;;;11.13;10.13;;;18.60;1.00;;;;;;4975321;28;20187;-66
2021/07/11 00:10:47;;;;;;;11.80;10.60;;;18.60;1.00;;;;;;4975490;28;20211;-66
2021/07/11 00:13:13;;;;;;;11.47;10.30;;;18.40;1.00;;;;;;4975325;28;20246;-66
2021/07/11 00:15:38;;;;;;;11.87;10.47;;;18.20;1.00;;;;;;4975693;28;20616;-66
2021/07/11 00:18:04;;;;;;;11.60;9.40;;;18.20;1.00;;;;;;4975219;28;20203;-66
2021/07/11 00:20:29;;;;;;;11.20;10.00;;;18.40;1.00;;;;;;4975831;28;20186;-70
2021/07/11 00:22:56;;;;;;;11.07;9.93;;;18.40;1.00;;;;;;4976044;28;20179;-70
2021/07/11 00:25:21;;;;;;;10.63;9.63;;;18.20;1.00;;;;;;4975568;28;20498;-70
2021/07/11 00:27:47;;;;;;;10.97;9.87;;;18.40;3.10;;;;;;4974939;28;20907;-70
2021/07/11 00:30:14;;;;;;;10.90;9.80;;;18.50;1.00;;;;;;4974907;28;20176;-70
2021/07/11 00:32:40;;;;;;;11.47;9.93;;;18.50;1.00;;;;;;4974986;28;20463;-70
2021/07/11 00:35:07;;;;;;;13.90;10.60;;;18.40;1.00;;;;;;4974887;28;20448;-70
2021/07/11 00:37:32;;;;;;;10.60;9.40;;;18.30;1.00;;;;;;4975138;28;20191;-70
2021/07/11 00:39:58;;;;;;;10.30;9.27;;;18.40;1.00;;;;;;4975058;28;20435;-70
2021/07/11 00:42:23;;;;;;;10.43;9.33;;;18.40;1.00;;;;;;4974825;28;20214;-70
2021/07/11 00:44:49;;;;;;;10.37;9.23;;;18.40;1.00;;;;;;4974712;28;20626;-70
2021/07/11 00:47:14;;;;;;;10.53;9.43;;;18.20;1.00;;;;;;4974710;28;20191;-70
2021/07/11 00:49:43;;;;;;;9.87;8.87;;;18.30;1.00;;;;;;4974667;28;20250;-70
2021/07/11 00:52:13;;;;;;;11.53;8.60;;;18.40;1.00;;;;;;4974650;28;20290;-70
2021/07/11 00:54:39;;;;;;;9.40;8.47;;;18.40;1.00;;;;;;4974806;28;20811;-70
2021/07/11 00:57:06;;;;;;;10.33;9.10;;;18.40;9.90;;;;;;4974671;28;20427;-70
2021/07/11 00:59:33;;;;;;;9.60;8.60;;;18.50;1.00;;;;;;4974493;28;20522;-70
2021/07/11 01:02:18;;;;;;;9.37;8.47;;;18.60;1.00;;;;;;4974467;28;21017;-70
2021/07/11 01:04:50;;;;;;;8.60;7.70;;;18.50;1.00;;;;;;4974923;28;20423;-70
2021/07/11 01:07:22;;;;;;;9.53;8.63;;;18.60;1.00;;;;;;4974349;28;20438;-70
2021/07/11 01:09:49;;;;;;;9.97;8.97;;;18.70;1.00;;;;;;4960209;28;20433;-70
2021/07/11 01:12:21;;;;;;;9.93;8.93;;;18.80;1.00;;;;;;4978493;28;20502;-70
2021/07/11 01:14:49;;;;;;;9.70;8.70;;;18.40;1.00;;;;;;4961233;28;20430;-70
2021/07/11 01:17:16;;;;;;;8.80;8.00;;;18.30;1.00;;;;;;4979001;28;20423;-69
2021/07/11 01:20:00;;;;;;;8.77;7.87;;;18.10;1.00;;;;;;4979194;28;20525;-66
2021/07/11 01:22:30;;;;;;;8.73;7.83;;;18.20;26.80;;;;;;4978233;28;20485;-65
2021/07/11 01:25:00;;;;;;;9.33;8.33;;;18.40;1.00;;;;;;4978149;28;20474;-65
2021/07/11 01:27:28;;;;;;;8.60;7.70;;;18.30;1.00;;;;;;4977943;28;20477;-65
2021/07/11 01:29:55;;;;;;;9.50;8.50;;;18.40;1.00;;;;;;4977916;28;20430;-65
2021/07/11 01:32:21;;;;;;;7.23;6.53;;;18.60;1.00;;;;;;4961023;28;20808;-65
2021/07/11 01:34:47;;;;;;;8.80;7.90;;;18.70;1.00;;;;;;4978041;28;20419;-65
2021/07/11 01:37:15;;;;;;;9.23;8.10;;;18.90;1.00;;;;;;4977767;28;20278;-65
2021/07/11 01:39:43;;;;;;;9.60;7.73;;;18.90;1.00;;;;;;4977874;28;20431;-65
2021/07/11 01:42:09;;;;;;;7.97;7.10;;;18.40;1.00;;;;;;4977923;28;20426;-65
2021/07/11 01:44:36;;;;;;;7.97;7.13;;;18.50;1.00;;;;;;4977950;28;20435;-65
2021/07/11 01:47:04;;;;;;;8.60;7.87;;;18.70;1.00;;;;;;4977762;28;20246;-65
2021/07/11 01:49:30;;;;;;;8.50;7.10;;;18.70;1.00;;;;;;4977803;28;20522;-65
2021/07/11 01:51:57;;;;;;;9.17;8.27;;;18.90;1.00;;;;;;4978484;28;20462;-65
2021/07/11 01:54:22;;;;;;;9.87;7.90;;;18.80;1.00;;;;;;4977530;28;20514;-66
2021/07/11 01:56:48;;;;;;;7.50;6.77;;;18.90;1.00;;;;;;4977522;28;20891;-65
2021/07/11 01:59:14;;;;;;;11.23;8.97;;;18.90;1.00;;;;;;4977451;28;20176;-65
2021/07/11 02:01:39;;;;;;;7.70;7.00;;;18.90;1.00;;;;;;4977519;28;20520;-65
2021/07/11 02:04:05;;;;;;;8.73;7.90;;;19.00;1.00;;;;;;4977457;28;20568;-65
2021/07/11 02:06:33;;;;;;;9.50;8.40;;;18.70;1.00;;;;;;4977209;28;20171;-65
2021/07/11 02:08:58;;;;;;;8.20;7.40;;;19.00;1.00;;;;;;4977262;28;20182;-65
2021/07/11 02:11:25;;;;;;;8.90;8.00;;;19.20;1.00;;;;;;4977248;28;20848;-65
2021/07/11 02:13:54;;;;;;;10.00;7.57;;;19.10;1.00;;;;;;4977088;28;20251;-65
2021/07/11 02:16:25;;;;;;;8.80;7.70;;;19.20;1.00;;;;;;4977194;28;20781;-65
2021/07/11 02:18:52;;;;;;;7.87;7.00;;;18.90;1.00;;;;;;4976833;28;20439;-65
2021/07/11 02:21:21;;;;;;;8.00;7.20;;;18.80;1.00;;;;;;4975744;28;20517;-65
2021/07/11 02:23:47;;;;;;;9.03;7.70;;;18.90;1.00;;;;;;4976945;28;20434;-65
2021/07/11 02:26:13;;;;;;;8.37;7.57;;;18.90;1.00;;;;;;4976969;28;20659;-65
2021/07/11 02:28:40;;;;;;;8.37;7.57;;;18.80;1.00;;;;;;4976614;28;20519;-65
2021/07/11 02:31:11;;;;;;;8.90;8.00;;;18.50;1.00;;;;;;4976852;28;20426;-65
2021/07/11 02:33:38;;;;;;;8.13;7.30;;;18.30;1.00;;;;;;4976726;28;20506;-65
2021/07/11 02:36:23;;;;;;;8.43;7.47;;;18.30;19.50;;;;;;4976750;28;20438;-65
2021/07/11 02:38:51;;;;;;;9.10;8.00;;;18.20;69.70;;;;;;4976623;28;20482;-65
2021/07/11 02:41:20;;;;;;;9.53;8.63;;;18.10;99.90;;;;;;4976571;28;20497;-65
2021/07/11 02:43:49;;;;;;;8.97;7.40;;;18.10;99.90;;;;;;4976574;28;20427;-65
2021/07/11 02:46:20;;;;;;;9.00;8.10;;;17.80;99.90;;;;;;4976436;28;20811;-65
2021/07/11 02:48:46;;;;;;;8.63;7.73;;;17.90;99.90;;;;;;4976345;28;20437;-65
2021/07/11 02:51:17;;;;;;;9.87;8.87;;;18.00;99.90;;;;;;4976711;28;20959;-65
2021/07/11 02:53:47;;;;;;;9.30;8.30;;;17.90;99.90;;;;;;4976313;28;20462;-65
2021/07/11 02:56:17;;;;;;;8.93;8.13;;;18.10;99.90;;;;;;4976270;28;20431;-65
2021/07/11 02:58:44;;;;;;;9.50;8.60;;;18.20;99.90;;;;;;4976251;28;20453;-65
2021/07/11 03:01:11;;;;;;;8.43;7.63;;;18.50;74.20;;;;;;4976232;28;20907;-65
2021/07/11 03:03:37;;;;;;;9.57;8.57;;;18.40;35.80;;;;;;4976355;28;20445;-65
2021/07/11 03:06:03;;;;;;;9.30;8.17;;;18.40;99.90;;;;;;4976208;28;20487;-65
2021/07/11 03:08:29;;;;;;;9.57;8.57;;;18.60;83.70;;;;;;4975960;28;20431;-65
2021/07/11 03:10:56;;;;;;;8.90;8.00;;;18.60;1.00;;;;;;4976118;28;20433;-65
2021/07/11 03:13:22;;;;;;;10.37;8.80;;;18.70;1.00;;;;;;4975982;28;20259;-65
2021/07/11 03:15:48;;;;;;;9.70;8.83;;;18.70;1.00;;;;;;4975750;28;20439;-65
2021/07/11 03:18:15;;;;;;;8.97;8.07;;;18.80;1.00;;;;;;4975715;28;20490;-65
2021/07/11 03:20:42;;;;;;;9.70;8.80;;;18.80;1.00;;;;;;4975912;28;20438;-65
2021/07/11 03:23:08;;;;;;;10.60;9.60;;;18.90;1.00;;;;;;4975829;28;20435;-65
2021/07/11 03:25:35;;;;;;;10.70;7.70;;;18.60;1.20;;;;;;4975668;28;20487;-65
2021/07/11 03:28:05;;;;;;;9.90;8.10;;;18.50;19.50;;;;;;4975703;28;20541;-65
2021/07/11 03:30:36;;;;;;;11.07;9.03;;;18.50;99.90;;;;;;4975665;28;20427;-65
2021/07/11 03:33:04;;;;;;;10.37;8.10;;;18.20;99.90;;;;;;4975345;28;20477;-65
2021/07/11 03:35:34;;;;;;;10.47;8.80;;;17.90;99.90;;;;;;4975623;28;20481;-65
2021/07/11 03:38:01;;;;;;;8.60;7.80;;;17.90;99.90;;;;;;4975402;28;20427;-65
2021/07/11 03:40:30;;;;;;;10.27;8.70;;;17.80;99.90;;;;;;4975558;28;20765;-65
2021/07/11 03:43:00;;;;;;;9.60;8.70;;;17.70;99.90;;;;;;4975503;28;20505;-65
2021/07/11 03:45:28;;;;;;;10.00;9.00;;;17.80;99.90;;;;;;4975480;28;20811;-65
2021/07/11 03:48:01;;;;;;;11.40;9.50;;;18.10;99.90;;;;;;4975450;28;20426;-65
2021/07/11 03:50:27;;;;;;;8.83;8.00;;;18.40;99.90;;;;;;4975300;28;20431;-65
2021/07/11 03:53:02;;;;;;;13.50;9.83;;;18.40;99.90;;;;;;4958229;28;20481;-65
2021/07/11 03:55:31;;;;;;;12.73;9.27;;;18.70;99.90;;;;;;4975370;28;20437;-65
2021/07/11 03:57:59;;;;;;;9.50;8.20;;;18.30;99.90;;;;;;4975175;28;20427;-65
2021/07/11 04:00:25;;;;;;;10.13;8.53;;;18.30;99.90;;;;;;4973897;28;20430;-65
2021/07/11 04:02:53;;;;;;;9.47;8.57;;;18.10;99.90;;;;;;4957356;28;20863;-68
2021/07/11 04:05:26;;;;;;;9.80;8.90;;;18.10;99.90;;;;;;4975107;28;20516;-69
2021/07/11 04:07:53;;;;;;;9.10;7.90;;;18.40;99.90;;;;;;4975356;28;20895;-70
2021/07/11 04:10:27;;;;;;;8.50;7.63;;;18.80;99.90;;;;;;4974945;28;20966;-70
2021/07/11 04:12:54;;;;;;;9.40;8.50;;;18.90;79.90;;;;;;4974866;28;20467;-70
2021/07/11 04:15:20;;;;;;;9.00;8.10;;;18.50;97.00;;;;;;4974941;28;20499;-70
2021/07/11 04:17:48;;;;;;;8.77;7.83;;;18.60;99.90;;;;;;4974937;28;20427;-69
2021/07/11 04:20:16;;;;;;;9.23;8.23;;;18.60;99.90;;;;;;4974756;28;20426;-70
2021/07/11 04:22:42;;;;;;;9.80;8.00;;;18.20;99.90;;;;;;4974782;28;20955;-69
2021/07/11 04:25:13;;;;;;;13.07;8.17;;;18.20;99.90;;;;;;4957822;28;20450;-69
2021/07/11 04:27:39;;;;;;;9.47;8.47;;;18.10;99.90;;;;;;4974732;28;20423;-69
2021/07/11 04:30:07;;;;;;;9.07;7.60;;;18.00;99.90;;;;;;4957637;28;20490;-70
2021/07/11 04:32:36;;;;;;;9.70;8.87;;;18.40;99.90;;;;;;4974647;28;20474;-70
2021/07/11 04:35:04;;;;;;;10.90;8.13;;;18.50;99.90;;;;;;4974707;28;20514;-66
2021/07/11 04:37:29;;;;;;;9.03;8.13;;;18.70;96.50;;;;;;4974677;28;20514;-69
2021/07/11 04:39:55;;;;;;;10.07;8.97;;;18.50;99.90;;;;;;4974593;28;20514;-69
2021/07/11 04:42:20;;;;;;;9.13;8.23;;;18.70;99.90;;;;;;4974689;28;20215;-69
2021/07/11 04:44:46;;;;;;;8.30;7.00;;;18.80;59.90;;;;;;4977564;28;20187;-69
2021/07/11 04:47:15;;;;;;;7.60;6.90;;;18.80;74.00;;;;;;4961493;28;20529;-70
2021/07/11 04:49:41;;;;;;;8.13;7.40;;;18.80;68.80;;;;;;4978643;28;20887;-70
2021/07/11 04:52:07;;;;;;;7.27;6.63;;;18.80;99.90;;;;;;4978923;28;20473;-66
2021/07/11 04:54:34;;;;;;;9.17;8.27;;;18.90;54.50;;;;;;4978306;28;20199;-66
2021/07/11 04:57:00;;;;;;;11.13;7.67;;;18.90;93.60;;;;;;4978464;28;20415;-65
2021/07/11 04:59:26;;;;;;;11.57;8.07;;;18.80;93.00;;;;;;4978386;28;20796;-65
2021/07/11 05:01:51;;;;;;;8.83;7.93;;;18.90;99.90;;;;;;4977932;28;20546;-66
2021/07/11 05:04:17;;;;;;;8.30;7.50;;;18.90;81.80;;;;;;4978517;28;20443;-66
2021/07/11 05:06:42;;;;;;;9.90;8.23;;;18.80;94.70;;;;;;4978242;28;20204;-66
2021/07/11 05:09:08;;;;;;;8.57;7.77;;;19.00;99.90;;;;;;4978195;28;20187;-66
2021/07/11 05:11:35;;;;;;;8.53;7.63;;;19.40;8.70;;;;;;4978192;28;20199;-65
2021/07/11 05:14:00;;;;;;;8.13;7.30;;;19.00;55.00;;;;;;4978050;28;20722;-65
2021/07/11 05:16:26;;;;;;;9.27;8.07;;;19.00;68.30;;;;;;4978176;28;20445;-65
2021/07/11 05:18:52;;;;;;;8.30;7.50;;;19.30;44.70;;;;;;4960824;28;20227;-66
2021/07/11 05:21:17;;;;;;;7.80;7.07;;;19.50;1.00;;;;;;4961073;28;20486;-67
2021/07/11 05:23:43;;;;;;;9.33;8.10;;;19.60;1.00;;;;;;4977994;28;20187;-65
2021/07/11 05:26:08;;;;;;;9.40;7.53;;;19.50;1.00;;;;;;4978091;28;20188;-65
2021/07/11 05:28:34;;;;;;;12.90;8.03;;;19.20;20.30;;;;;;4977877;28;20191;-65
2021/07/11 05:31:00;;;;;;;9.33;8.43;;;19.40;6.80;;;;;;4977364;28;20270;-66
2021/07/11 05:33:26;;;;;;;8.40;7.60;;;19.40;1.00;;;;;;4977868;28;20306;-65
2021/07/11 05:35:52;;;;;;;8.30;7.30;;;20.00;1.00;;;;;;4978004;28;20423;-65
2021/07/11 05:38:17;;;;;;;8.27;7.57;;;20.30;1.00;;;;;;4977565;28;20186;-65
2021/07/11 05:40:43;;;;;;;9.70;7.30;;;20.60;1.00;;;;;;4977673;28;20597;-65
2021/07/11 05:43:09;;;;;;;7.93;6.70;;;20.60;1.00;;;;;;4977898;28;20497;-65
2021/07/11 05:45:34;;;;;;;10.77;7.20;;;20.40;1.00;;;;;;4977833;28;20543;-66
2021/07/11 05:48:00;;;;;;;14.30;7.40;;;20.40;1.00;;;;;;4977550;28;20438;-66
2021/07/11 05:50:26;;;;;;;9.43;8.10;;;20.60;1.00;;;;;;4977526;28;20219;-66
2021/07/11 05:52:51;;;;;;;8.43;7.63;;;21.00;1.00;;;;;;4977506;28;20870;-66
2021/07/11 05:55:17;;;;;;;9.33;7.77;;;20.90;99.90;;;;;;4977276;28;20303;-66
2021/07/11 05:57:42;;;;;;;8.80;7.53;;;21.10;99.90;;;;;;4977240;28;20176;-65
2021/07/11 06:00:11;;;;;;;8.83;7.80;;;21.30;99.90;;;;;;4977392;28;20195;-66
2021/07/11 06:02:36;;;;;;;8.20;7.43;;;21.10;99.90;;;;;;4977414;28;20203;-66
2021/07/11 06:05:02;;;;;;;8.60;7.80;;;21.00;99.90;;;;;;4977244;28;20521;-66
2021/07/11 06:07:27;;;;;;;8.40;6.80;;;20.80;99.90;;;;;;4977177;28;20180;-66
2021/07/11 06:09:53;;;;;;;8.20;7.07;;;21.20;1.00;;;;;;4977096;28;20199;-66
2021/07/11 06:12:18;;;;;;;10.00;7.37;;;20.90;99.90;;;;;;4977147;28;20261;-65
2021/07/11 06:14:44;;;;;;;9.53;7.53;;;21.00;99.90;;;;;;4977185;28;20679;-65
2021/07/11 06:17:10;;;;;;;8.17;7.37;;;21.00;99.90;;;;;;4976966;28;20518;-65
2021/07/11 06:19:36;;;;;;;8.73;7.50;;;21.00;1.00;;;;;;4977004;28;20184;-66
2021/07/11 06:22:01;;;;;;;7.67;6.93;;;21.30;99.90;;;;;;4977246;28;20270;-66
2021/07/11 06:24:27;;;;;;;8.07;7.27;;;21.10;99.90;;;;;;4976827;28;20335;-66
2021/07/11 06:26:52;;;;;;;8.60;7.80;;;20.90;1.00;;;;;;4976184;28;20187;-65
2021/07/11 06:29:18;;;;;;;7.63;6.80;;;20.60;1.00;;;;;;4976733;28;20202;-66
2021/07/11 06:31:43;;;;;;;9.83;8.83;;;20.10;1.00;;;;;;4976757;28;20561;-66
2021/07/11 06:34:09;;;;;;;8.50;7.43;;;19.90;1.00;;;;;;4976777;28;20184;-66
2021/07/11 06:36:34;;;;;;;8.70;7.87;;;20.00;1.00;;;;;;4976637;28;20266;-66
2021/07/11 06:39:02;;;;;;;7.83;7.13;;;20.60;1.00;;;;;;4976769;28;20219;-66
2021/07/11 06:41:28;;;;;;;8.40;7.60;;;20.70;1.00;;;;;;4959431;28;20201;-65
2021/07/11 06:43:53;;;;;;;7.40;6.70;;;20.40;1.00;;;;;;4976474;28;20509;-65
2021/07/11 06:46:19;;;;;;;8.73;7.73;;;20.20;1.00;;;;;;4976342;28;20187;-65
2021/07/11 06:48:44;;;;;;;7.60;6.90;;;20.50;1.00;;;;;;4976740;28;20201;-65
2021/07/11 06:51:10;;;;;;;9.00;7.10;;;20.50;1.00;;;;;;4976903;28;20188;-65
2021/07/11 06:53:36;;;;;;;9.27;7.07;;;20.50;1.00;;;;;;4976544;28;20215;-70
2021/07/11 06:56:03;;;;;;;7.83;7.03;;;20.30;1.00;;;;;;4953371;28;20188;-69
2021/07/11 06:58:28;;;;;;;7.77;7.07;;;20.20;1.00;;;;;;4976457;28;20438;-70
2021/07/11 07:00:54;;;;;;;6.20;5.70;;;20.70;1.00;;;;;;4976346;28;20423;-70
2021/07/11 07:03:20;;;;;;;7.60;6.90;;;20.80;1.00;;;;;;4976426;28;20203;-65
2021/07/11 07:05:45;;;;;;;8.10;7.40;;;20.60;1.00;;;;;;4969552;28;20561;-65
2021/07/11 07:08:11;;;;;;;8.73;7.87;;;20.50;1.00;;;;;;4968357;28;20201;-70
2021/07/11 07:10:37;;;;;;;8.53;7.73;;;21.00;1.00;;;;;;4967261;28;20191;-70
2021/07/11 07:13:03;;;;;;;8.00;7.20;;;21.00;1.00;;;;;;4976115;28;20219;-70
2021/07/11 07:15:28;;;;;;;8.00;7.30;;;21.30;1.00;;;;;;4976030;28;20179;-70
2021/07/11 07:17:54;;;;;;;7.63;7.00;;;21.50;1.00;;;;;;4975857;28;20522;-66
2021/07/11 07:20:20;;;;;;;7.90;7.10;;;21.60;99.90;;;;;;4958754;28;20184;-66
2021/07/11 07:22:45;;;;;;;7.60;6.97;;;21.60;99.90;;;;;;4975913;28;20462;-65
2021/07/11 07:25:14;;;;;;;9.70;7.90;;;21.50;99.90;;;;;;4975805;28;20204;-66
2021/07/11 07:27:40;;;;;;;8.47;7.67;;;21.20;1.00;;;;;;4958879;28;20496;-65
2021/07/11 07:30:07;;;;;;;7.57;6.87;;;21.40;1.00;;;;;;4976214;28;20435;-67
2021/07/11 07:32:33;;;;;;;8.77;7.87;;;22.30;99.90;;;;;;4976209;28;20454;-66
2021/07/11 07:34:59;;;;;;;9.60;7.70;;;22.40;1.00;;;;;;4976537;28;20427;-69
2021/07/11 07:37:24;;;;;;;8.27;7.47;;;22.50;99.90;;;;;;4959314;28;20187;-70
2021/07/11 07:39:50;;;;;;;7.47;6.80;;;22.90;99.90;;;;;;4975819;28;20180;-70
2021/07/11 07:42:16;;;;;;;7.47;6.77;;;23.00;1.00;;;;;;4959610;28;20180;-70
2021/07/11 07:44:42;;;;;;;7.93;7.23;;;23.20;99.90;;;;;;4976832;28;20522;-70
2021/07/11 07:47:08;;;;;;;7.97;6.50;;;23.10;1.00;;;;;;4976459;28;20445;-70
2021/07/11 07:49:33;;;;;;;9.10;7.33;;;23.30;1.00;;;;;;4975535;28;20500;-70
2021/07/11 07:51:59;;;;;;;7.60;6.80;;;23.20;1.00;;;;;;4975506;28;20675;-70
2021/07/11 07:54:25;;;;;;;7.10;6.40;;;23.40;99.90;;;;;;4975821;28;20180;-70
2021/07/11 07:56:50;;;;;;;7.70;6.97;;;23.40;1.00;;;;;;4975696;28;20183;-67
2021/07/11 07:59:16;;;;;;;9.93;7.13;;;22.90;1.00;;;;;;4975297;28;20656;-66
2021/07/11 08:01:42;;;;;;;7.90;7.00;;;22.70;99.90;;;;;;4958194;28;20195;-66
2021/07/11 08:04:07;;;;;;;8.60;7.70;;;22.80;99.90;;;;;;4975305;28;20465;-66
2021/07/11 08:06:33;;;;;;;8.60;7.70;;;23.00;1.00;;;;;;4975317;28;20180;-69
2021/07/11 08:08:59;;;;;;;8.50;7.70;;;23.20;30.70;;;;;;4975062;28;20506;-73
2021/07/11 08:11:24;;;;;;;8.40;7.53;;;23.30;1.00;;;;;;4975276;28;20427;-70
2021/07/11 08:13:50;;;;;;;8.17;7.47;;;23.30;99.90;;;;;;4975247;28;20207;-67
2021/07/11 08:16:16;;;;;;;9.53;7.50;;;22.70;1.00;;;;;;4975141;28;20234;-66
2021/07/11 08:18:42;;;;;;;9.57;7.70;;;22.90;99.90;;;;;;4974905;28;20755;-66
2021/07/11 08:21:08;;;;;;;8.23;7.43;;;22.70;1.00;;;;;;4975267;28;20441;-66
2021/07/11 08:23:33;;;;;;;8.30;7.50;;;22.80;1.00;;;;;;4975484;28;20193;-66
2021/07/11 08:25:59;;;;;;;7.60;7.00;;;23.30;41.90;;;;;;4975478;28;20198;-67
2021/07/11 08:28:25;;;;;;;7.80;7.10;;;22.70;39.40;;;;;;4974586;28;20242;-66
2021/07/11 08:30:51;;;;;;;8.30;7.50;;;22.90;1.00;;;;;;4975230;28;20598;-66
2021/07/11 08:33:16;;;;;;;10.13;6.90;;;23.40;1.00;;;;;;4974846;28;20274;-66
2021/07/11 08:35:42;;;;;;;7.90;7.20;;;24.10;99.90;;;;;;4975146;28;20254;-66
2021/07/11 08:38:08;;;;;;;7.63;6.83;;;24.60;1.00;;;;;;4974611;28;20244;-66
2021/07/11 08:40:34;;;;;;;7.43;6.83;;;24.10;1.00;;;;;;4974929;28;20211;-66
2021/07/11 08:43:03;;;;;;;7.07;6.37;;;24.10;1.00;;;;;;4975053;28;20175;-66
2021/07/11 08:45:28;;;;;;;7.07;6.47;;;24.70;1.00;;;;;;4974883;28;20737;-67
2021/07/11 08:47:54;;;;;;;6.10;5.50;;;23.90;14.10;;;;;;4974683;28;20521;-67
2021/07/11 08:50:19;;;;;;;6.80;6.20;;;24.50;1.00;;;;;;4957586;28;20195;-67
2021/07/11 08:52:47;;;;;;;7.60;6.20;;;24.00;99.90;;;;;;4974598;28;20218;-67
2021/07/11 08:55:22;;;;;;;7.27;6.57;;;24.20;99.90;;;;;;4974695;28;20184;-66
2021/07/11 08:57:51;;;;;;;6.60;6.10;;;23.30;1.00;;;;;;4974619;28;20477;-66
2021/07/11 09:00:20;;;;;;;7.20;6.60;;;23.20;99.90;;;;;;4974290;28;20423;-67
2021/07/11 09:02:46;;;;;;;6.60;6.10;;;23.80;1.00;;;;;;4957420;28;20454;-66
2021/07/11 09:05:30;;;;;;;8.23;6.80;;;23.90;99.90;;;;;;4957526;28;20934;-66
2021/07/11 09:08:06;;;;;;;6.73;5.97;;;24.10;1.00;;;;;;4957816;28;20207;-67
2021/07/11 09:10:39;;;;;;;7.40;6.80;;;24.50;1.00;;;;;;4974627;28;20438;-66
2021/07/11 09:13:11;;;;;;;7.33;6.53;;;25.00;1.00;;;;;;4957604;28;20474;-66
2021/07/11 09:15:38;;;;;;;6.73;6.13;;;25.10;99.90;;;;;;4957281;28;20930;-66
2021/07/11 09:18:05;;;;;;;9.23;6.63;;;24.60;27.30;;;;;;4974293;28;20896;-66
2021/07/11 09:20:30;;;;;;;6.50;6.00;;;24.70;99.90;;;;;;4974610;28;20422;-67
2021/07/11 09:23:03;;;;;;;6.27;5.67;;;24.80;10.10;;;;;;4957740;28;20427;-70
2021/07/11 09:25:29;;;;;;;6.60;6.00;;;24.80;99.90;;;;;;4974503;28;20755;-70
2021/07/11 09:27:55;;;;;;;6.20;5.60;;;24.70;99.90;;;;;;4974118;28;20830;-66
2021/07/11 09:30:21;;;;;;;6.30;5.80;;;24.60;1.00;;;;;;4959328;28;20962;-70
2021/07/11 09:32:51;;;;;;;6.53;5.93;;;25.10;1.00;;;;;;4978544;28;20471;-70
2021/07/11 09:35:20;;;;;;;6.33;5.83;;;25.00;1.00;;;;;;4978780;28;20262;-70
2021/07/11 09:37:48;;;;;;;7.37;6.60;;;25.10;1.00;;;;;;4978138;28;20434;-70
2021/07/11 09:40:16;;;;;;;6.93;6.33;;;25.50;99.90;;;;;;4978499;28;20758;-70
2021/07/11 09:42:44;;;;;;;6.67;6.07;;;25.50;99.90;;;;;;4978499;28;20427;-67
2021/07/11 09:45:19;;;;;;;7.03;6.33;;;25.60;99.90;;;;;;4977840;28;20433;-71
2021/07/11 09:47:47;;;;;;;8.60;6.20;;;25.50;99.90;;;;;;4978781;28;20434;-71
2021/07/11 09:50:21;;;;;;;7.73;6.37;;;25.00;99.90;;;;;;4960969;28;20537;-71
2021/07/11 09:52:48;;;;;;;6.70;6.20;;;25.20;1.00;;;;;;4960689;28;20476;-71
2021/07/11 09:55:22;;;;;;;7.10;6.50;;;25.80;99.90;;;;;;4977877;28;20419;-71
2021/07/11 09:57:51;;;;;;;8.00;7.30;;;26.10;99.90;;;;;;4977459;28;20430;-70
2021/07/11 10:00:22;;;;;;;8.23;7.10;;;26.60;1.00;;;;;;4977524;28;20438;-67
2021/07/11 10:02:49;;;;;;;6.50;5.90;;;26.60;99.90;;;;;;4977410;28;20459;-70
2021/07/11 10:05:16;;;;;;;7.60;7.00;;;26.50;1.00;;;;;;4977512;28;20570;-68
2021/07/11 10:07:42;;;;;;;6.80;6.20;;;26.90;99.90;;;;;;4977181;28;20747;-68
2021/07/11 10:10:11;;;;;;;6.13;5.53;;;26.40;1.00;;;;;;4960108;28;20475;-68
2021/07/11 10:12:38;;;;;;;7.90;6.30;;;26.10;1.00;;;;;;4977168;28;20480;-67
2021/07/11 10:15:12;;;;;;;6.40;5.80;;;26.00;1.00;;;;;;4960582;28;20431;-67
2021/07/11 10:17:43;;;;;;;7.30;6.20;;;26.40;1.00;;;;;;4977276;28;20746;-67
2021/07/11 10:20:09;;;;;;;8.33;6.43;;;26.50;1.00;;;;;;4977184;28;20431;-68
2021/07/11 10:22:52;;;;;;;6.43;6.00;;;27.00;99.90;;;;;;4976775;28;20441;-68
2021/07/11 10:25:23;;;;;;;7.20;6.50;;;26.60;99.90;;;;;;4977223;28;20518;-67
2021/07/11 10:28:22;;;;;;;7.97;7.27;;;26.70;99.90;;;;;;4977396;28;20431;-67
2021/07/11 10:30:48;;;;;;;6.97;6.37;;;27.10;99.90;;;;;;4976889;28;20899;-68
2021/07/11 10:33:19;;;;;;;7.37;6.67;;;27.50;60.80;;;;;;4976765;28;20470;-67
2021/07/11 10:36:05;;;;;;;6.83;6.17;;;26.70;99.90;;;;;;4976962;28;20207;-66
2021/07/11 10:38:39;;;;;;;7.20;6.60;;;26.60;99.90;;;;;;4959721;28;20439;-67
2021/07/11 10:41:20;;;;;;;6.30;5.70;;;26.70;99.90;;;;;;4975867;28;20493;-66
2021/07/11 10:44:02;;;;;;;8.27;6.57;;;26.50;99.90;;;;;;4977115;28;20443;-67
2021/07/11 10:46:31;;;;;;;7.23;6.53;;;27.00;99.90;;;;;;4977121;28;20437;-67
2021/07/11 10:49:07;;;;;;;7.27;6.67;;;27.50;67.00;;;;;;4976681;28;20438;-67
2021/07/11 10:51:40;;;;;;;6.90;6.30;;;27.40;1.00;;;;;;4976567;28;20435;-68
2021/07/11 10:54:20;;;;;;;9.20;7.33;;;27.00;97.60;;;;;;4959574;28;21006;-67
2021/07/11 10:56:46;;;;;;;8.63;7.93;;;27.20;27.60;;;;;;4976825;28;20431;-70
2021/07/11 10:59:47;;;;;;;7.90;7.20;;;27.70;1.00;;;;;;4959831;28;20446;-71
2021/07/11 11:02:15;;;;;;;7.67;6.30;;;28.20;1.00;;;;;;4976836;28;20233;-71
2021/07/11 11:04:43;;;;;;;8.10;7.30;;;28.50;1.00;;;;;;4959835;28;20808;-71
2021/07/11 11:07:13;;;;;;;7.87;7.17;;;28.60;1.00;;;;;;4976404;28;20506;-71
2021/07/11 11:09:43;;;;;;;7.40;6.70;;;28.60;1.00;;;;;;4976159;28;20986;-71
2021/07/11 11:12:27;;;;;;;7.47;6.87;;;28.30;1.00;;;;;;4959190;28;20967;-71
2021/07/11 11:15:02;;;;;;;7.67;7.00;;;28.10;1.00;;;;;;4976209;28;20435;-71
2021/07/11 11:17:36;;;;;;;7.70;7.00;;;28.10;1.00;;;;;;4976067;28;20426;-71
2021/07/11 11:20:07;;;;;;;6.73;6.13;;;28.60;1.00;;;;;;4976020;28;20769;-71
2021/07/11 11:22:33;;;;;;;7.53;6.87;;;29.00;1.00;;;;;;4958602;28;20780;-68
2021/07/11 11:24:59;;;;;;;6.83;6.33;;;28.60;1.00;;;;;;4976026;28;20510;-68
2021/07/11 11:27:40;;;;;;;8.73;6.20;;;28.30;1.00;;;;;;4958857;28;20442;-67
2021/07/11 11:30:13;;;;;;;7.03;6.53;;;28.20;1.00;;;;;;4958598;28;20915;-67
2021/07/11 11:32:39;;;;;;;7.17;6.27;;;28.00;1.00;;;;;;4975671;28;20864;-68
2021/07/11 11:35:06;;;;;;;7.73;7.13;;;28.60;1.00;;;;;;4958246;28;20463;-67
2021/07/11 11:37:33;;;;;;;7.43;6.83;;;28.70;1.00;;;;;;4975594;28;20487;-70
2021/07/11 11:40:04;;;;;;;7.17;6.57;;;28.80;1.00;;;;;;4958979;28;20927;-71
2021/07/11 11:42:30;;;;;;;7.60;6.90;;;28.90;1.00;;;;;;4958582;28;20783;-72
2021/07/11 11:45:08;;;;;;;6.33;5.83;;;28.70;1.00;;;;;;4975730;28;20437;-72
2021/07/11 11:47:35;;;;;;;6.90;6.40;;;28.80;1.00;;;;;;4975777;28;20194;-72
2021/07/11 11:50:16;;;;;;;6.90;6.30;;;29.20;1.00;;;;;;4958693;28;20442;-71
2021/07/11 11:52:42;;;;;;;6.83;6.33;;;29.10;1.00;;;;;;4975177;28;20498;-72
2021/07/11 11:55:09;;;;;;;7.23;6.73;;;29.00;1.00;;;;;;4958959;28;20442;-72
2021/07/11 11:57:36;;;;;;;5.70;5.30;;;29.30;1.00;;;;;;4975514;28;21008;-71
2021/07/11 12:00:04;;;;;;;6.67;6.13;;;29.60;1.00;;;;;;4975590;28;20430;-72
2021/07/11 12:02:31;;;;;;;6.40;5.80;;;29.70;1.00;;;;;;4975156;28;20521;-72
2021/07/11 12:05:07;;;;;;;6.70;6.20;;;29.40;1.00;;;;;;4974618;28;20513;-71
2021/07/11 12:07:33;;;;;;;6.30;5.80;;;29.00;1.00;;;;;;4974064;28;20899;-71
2021/07/11 12:09:58;;;;;;;7.00;6.20;;;28.90;1.00;;;;;;4974272;28;20435;-71
2021/07/11 12:12:24;;;;;;;7.67;6.83;;;28.90;1.00;;;;;;4974252;28;20266;-71
2021/07/11 12:14:49;;;;;;;6.73;6.23;;;29.10;1.00;;;;;;4974721;28;20194;-71
2021/07/11 12:17:17;;;;;;;8.33;5.90;;;29.60;1.00;;;;;;4974670;28;20183;-71
2021/07/11 12:19:53;;;;;;;7.00;6.40;;;29.40;1.00;;;;;;4974416;28;20259;-68
2021/07/11 12:22:42;;;;;;;6.47;5.97;;;29.10;1.00;;;;;;4974130;28;20946;-68
2021/07/11 12:25:14;;;;;;;6.80;6.30;;;29.50;1.00;;;;;;4974234;28;20450;-68
2021/07/11 12:27:42;;;;;;;7.00;6.37;;;29.10;1.00;;;;;;4973857;28;20457;-67
2021/07/11 12:30:09;;;;;;;6.80;6.10;;;28.20;1.00;;;;;;4973951;28;20449;-67
2021/07/11 12:32:51;;;;;;;6.87;6.27;;;28.00;1.00;;;;;;4974051;28;20466;-67
2021/07/11 12:35:18;;;;;;;6.47;5.97;;;28.50;1.00;;;;;;4974171;28;20771;-67
2021/07/11 12:38:04;;;;;;;6.57;5.97;;;29.10;1.00;;;;;;4973785;28;20582;-67
2021/07/11 12:40:32;;;;;;;8.40;6.17;;;29.40;1.00;;;;;;4973836;28;20438;-67
2021/07/11 12:43:05;;;;;;;6.93;6.30;;;29.80;1.00;;;;;;4974255;28;20768;-68
2021/07/11 12:45:31;;;;;;;6.53;6.03;;;29.90;1.00;;;;;;4973980;28;20480;-68
2021/07/11 12:47:57;;;;;;;6.63;6.00;;;30.20;1.00;;;;;;4956870;28;20514;-71
2021/07/11 12:50:41;;;;;;;7.73;7.13;;;29.20;1.00;;;;;;4974073;28;20522;-71
2021/07/11 12:53:08;;;;;;;6.73;6.03;;;29.50;1.00;;;;;;4974594;28;20656;-71
2021/07/11 12:55:34;;;;;;;7.10;6.37;;;29.80;1.00;;;;;;4974459;28;20441;-71